createdAt,value
2019-03-24T00:02:28.281Z,65.77
2019-03-24T00:04:59.187Z,65.87
2019-03-24T00:07:31.959Z,65.88
2019-03-24T00:10:06.587Z,65.88
2019-03-24T00:12:37.504Z,66.06
2019-03-24T00:15:08.896Z,66.10
2019-03-24T00:17:39.810Z,66.22
2019-03-24T00:20:11.092Z,66.32
2019-03-24T00:22:42.029Z,66.49
2019-03-24T00:25:12.928Z,66.57
2019-03-24T00:27:43.854Z,66.61
2019-03-24T00:30:14.960Z,66.90
2019-03-24T00:32:45.876Z,67.14
2019-03-24T00:35:16.781Z,67.17
2019-03-24T00:37:47.727Z,67.34
2019-03-24T00:40:18.689Z,67.39
2019-03-24T00:42:49.621Z,67.58
2019-03-24T00:45:20.510Z,67.72
2019-03-24T00:47:52.328Z,67.56
2019-03-24T00:50:23.235Z,67.51
2019-03-24T00:52:54.222Z,67.48
2019-03-24T00:55:25.118Z,67.39
2019-03-24T00:57:56.044Z,67.41
2019-03-24T01:00:47.324Z,67.33
2019-03-24T01:03:18.327Z,67.43
2019-03-24T01:05:49.330Z,67.26
2019-03-24T01:08:21.131Z,67.44
2019-03-24T01:10:52.818Z,67.50
2019-03-24T01:13:23.756Z,67.45
2019-03-24T01:15:54.657Z,67.46
2019-03-24T01:18:25.584Z,67.44
2019-03-24T01:20:56.475Z,67.34
2019-03-24T01:23:27.414Z,67.43
2019-03-24T01:25:58.302Z,67.45
2019-03-24T01:28:29.230Z,67.51
2019-03-24T01:31:00.116Z,67.60
2019-03-24T01:33:31.034Z,67.63
2019-03-24T01:36:01.922Z,67.53
2019-03-24T01:38:33.748Z,67.58
2019-03-24T01:41:08.233Z,67.50
2019-03-24T01:43:39.144Z,67.51
2019-03-24T01:46:10.053Z,67.45
2019-03-24T01:48:40.982Z,67.39
2019-03-24T01:51:11.877Z,67.42
2019-03-24T01:53:43.678Z,67.45
2019-03-24T01:56:14.570Z,67.67
2019-03-24T01:58:45.484Z,67.76
2019-03-24T02:01:16.456Z,67.75
2019-03-24T02:03:47.374Z,67.68
2019-03-24T02:06:18.259Z,67.60
2019-03-24T02:08:50.126Z,67.57
2019-03-24T02:11:21.794Z,67.60
2019-03-24T02:13:53.560Z,67.63
2019-03-24T02:16:24.476Z,67.80
2019-03-24T02:18:55.406Z,67.90
2019-03-24T02:21:26.306Z,67.80
2019-03-24T02:23:58.140Z,68.11
2019-03-24T02:26:29.100Z,68.15
2019-03-24T02:29:00.034Z,68.37
2019-03-24T02:31:34.490Z,68.30
2019-03-24T02:34:05.428Z,68.52
2019-03-24T02:36:36.333Z,68.62
2019-03-24T02:39:12.008Z,68.60
2019-03-24T02:41:42.907Z,68.75
2019-03-24T02:44:14.650Z,68.97
2019-03-24T02:46:45.557Z,69.08
2019-03-24T02:49:16.471Z,69.08
2019-03-24T02:51:47.436Z,69.05
2019-03-24T02:54:19.273Z,69.12
2019-03-24T02:56:50.141Z,69.21
2019-03-24T02:59:21.065Z,69.26
2019-03-24T03:01:51.962Z,69.28
2019-03-24T03:04:22.874Z,69.52
2019-03-24T03:06:53.774Z,69.64
2019-03-24T03:09:24.724Z,69.65
2019-03-24T03:11:55.623Z,69.76
2019-03-24T03:14:26.541Z,69.77
2019-03-24T03:16:57.434Z,69.77
2019-03-24T03:19:28.345Z,69.65
2019-03-24T03:21:59.252Z,69.86
2019-03-24T03:24:30.492Z,70.01
2019-03-24T03:27:01.495Z,70.24
2019-03-24T03:29:32.410Z,70.26
2019-03-24T03:32:04.426Z,70.22
2019-03-24T03:34:35.329Z,70.33
2019-03-24T03:37:06.416Z,70.34
2019-03-24T03:39:38.194Z,70.37
2019-03-24T03:42:09.124Z,70.36
2019-03-24T03:44:40.055Z,70.26
2019-03-24T03:47:10.949Z,70.31
2019-03-24T03:49:41.869Z,70.22
2019-03-24T03:52:12.787Z,70.49
2019-03-24T03:54:43.740Z,70.46
2019-03-24T03:57:17.173Z,70.68
2019-03-24T03:59:47.250Z,70.57
2019-03-24T04:02:18.239Z,70.91
2019-03-24T04:04:49.164Z,71.02
2019-03-24T04:07:20.054Z,71.29
2019-03-24T04:09:51.007Z,71.32
2019-03-24T04:12:22.708Z,71.70
2019-03-24T04:14:53.568Z,71.65
2019-03-24T04:17:24.535Z,71.84
2019-03-24T04:19:55.468Z,71.99
2019-03-24T04:22:26.367Z,72.13
2019-03-24T04:24:57.290Z,72.23
2019-03-24T04:27:28.200Z,72.56
2019-03-24T04:30:10.191Z,72.48
2019-03-24T04:32:37.133Z,72.47
2019-03-24T04:35:09.265Z,72.52
2019-03-24T04:37:40.156Z,72.49
2019-03-24T04:40:12.000Z,72.53
2019-03-24T04:42:42.896Z,72.75
2019-03-24T04:45:13.916Z,72.90
2019-03-24T04:47:44.812Z,72.93
2019-03-24T04:50:15.858Z,72.93
2019-03-24T04:52:46.726Z,72.93
2019-03-24T04:55:17.689Z,73.11
2019-03-24T04:57:48.592Z,73.18
2019-03-24T05:00:22.437Z,72.77
2019-03-24T05:02:56.334Z,72.74
2019-03-24T05:05:27.266Z,72.41
2019-03-24T05:07:58.671Z,72.40
2019-03-24T05:10:29.615Z,72.45
2019-03-24T05:13:01.293Z,72.32
2019-03-24T05:15:32.221Z,72.45
2019-03-24T05:18:03.124Z,72.35
2019-03-24T05:20:34.053Z,72.30
2019-03-24T05:23:07.892Z,72.03
2019-03-24T05:25:38.835Z,71.88
2019-03-24T05:28:09.720Z,71.48
2019-03-24T05:30:40.660Z,71.03
2019-03-24T05:33:17.544Z,70.59
2019-03-24T05:35:48.706Z,70.32
2019-03-24T05:38:19.606Z,70.05
2019-03-24T05:40:50.665Z,69.83
2019-03-24T05:43:21.560Z,69.74
2019-03-24T05:45:52.473Z,69.62
2019-03-24T05:48:23.383Z,69.52
2019-03-24T05:50:54.318Z,68.84
2019-03-24T05:53:25.226Z,68.17
2019-03-24T05:55:56.182Z,67.75
2019-03-24T05:58:27.074Z,67.37
2019-03-24T06:00:58.006Z,67.12
2019-03-24T06:03:28.910Z,67.10
2019-03-24T06:05:59.837Z,67.05
2019-03-24T06:08:30.729Z,67.00
2019-03-24T06:11:02.587Z,66.86
2019-03-24T06:13:33.464Z,66.78
2019-03-24T06:16:04.398Z,66.72
2019-03-24T06:18:35.313Z,66.62
2019-03-24T06:21:06.224Z,66.69
2019-03-24T06:23:37.124Z,66.73
2019-03-24T06:26:08.090Z,66.72
2019-03-24T06:28:38.986Z,66.62
2019-03-24T06:31:09.925Z,66.58
2019-03-24T06:33:40.828Z,66.54
2019-03-24T06:36:11.750Z,66.52
2019-03-24T06:38:42.651Z,66.48
2019-03-24T06:41:14.412Z,66.29
2019-03-24T06:43:45.312Z,66.30
2019-03-24T06:46:16.237Z,66.03
2019-03-24T06:48:47.142Z,66.10
2019-03-24T06:51:18.069Z,66.06
2019-03-24T06:53:48.962Z,65.92
2019-03-24T06:56:21.512Z,65.66
2019-03-24T06:58:52.404Z,65.57
2019-03-24T07:01:23.360Z,65.38
2019-03-24T07:03:54.222Z,65.32
2019-03-24T07:06:25.150Z,65.21
2019-03-24T07:08:56.050Z,65.17
2019-03-24T07:11:27.874Z,65.08
2019-03-24T07:13:58.769Z,65.01
2019-03-24T07:16:29.698Z,65.19
2019-03-24T07:19:00.595Z,64.93
2019-03-24T07:21:31.543Z,64.89
2019-03-24T07:24:02.433Z,64.70
2019-03-24T07:26:35.043Z,64.65
2019-03-24T07:29:05.961Z,64.56
2019-03-24T07:31:36.887Z,64.49
2019-03-24T07:34:07.843Z,64.28
2019-03-24T07:36:38.771Z,64.03
2019-03-24T07:39:09.741Z,64.15
2019-03-24T07:41:41.504Z,64.22
2019-03-24T07:44:12.394Z,63.80
2019-03-24T07:46:43.319Z,63.90
2019-03-24T07:49:14.298Z,63.79
2019-03-24T07:51:45.219Z,63.68
2019-03-24T07:54:16.186Z,63.37
2019-03-24T07:56:48.767Z,63.22
2019-03-24T07:59:19.667Z,63.17
2019-03-24T08:01:50.594Z,63.02
2019-03-24T08:04:21.495Z,62.99
2019-03-24T08:06:57.117Z,62.90
2019-03-24T08:09:28.579Z,62.73
2019-03-24T08:12:00.390Z,62.68
2019-03-24T08:14:32.130Z,62.40
2019-03-24T08:17:03.065Z,62.18
2019-03-24T08:19:33.960Z,61.90
2019-03-24T08:22:04.962Z,61.77
2019-03-24T08:24:36.103Z,61.31
2019-03-24T08:27:07.912Z,61.01
2019-03-24T08:29:40.131Z,60.54
2019-03-24T08:32:11.483Z,60.25
2019-03-24T08:34:42.375Z,59.79
2019-03-24T08:37:14.082Z,59.36
2019-03-24T08:39:44.995Z,59.30
2019-03-24T08:42:16.948Z,58.88
2019-03-24T08:44:47.865Z,58.43
2019-03-24T08:47:18.778Z,57.99
2019-03-24T08:49:50.191Z,57.65
2019-03-24T08:52:21.135Z,57.36
2019-03-24T08:54:52.064Z,56.97
2019-03-24T08:57:23.900Z,57.08
2019-03-24T08:59:54.819Z,56.93
2019-03-24T09:02:25.753Z,56.72
2019-03-24T09:04:56.682Z,56.39
2019-03-24T09:07:27.614Z,56.04
2019-03-24T09:09:58.522Z,55.87
2019-03-24T09:12:31.249Z,55.49
2019-03-24T09:15:02.113Z,55.54
2019-03-24T09:17:33.077Z,55.44
2019-03-24T09:20:05.364Z,55.34
2019-03-24T09:22:36.300Z,55.10
2019-03-24T09:25:08.122Z,55.17
2019-03-24T09:27:40.004Z,54.97
2019-03-24T09:30:16.385Z,54.74
2019-03-24T09:32:47.308Z,54.59
2019-03-24T09:35:18.222Z,54.38
2019-03-24T09:37:49.171Z,53.97
2019-03-24T09:40:28.605Z,53.58
2019-03-24T09:43:01.977Z,53.37
2019-03-24T09:45:33.173Z,53.60
2019-03-24T09:48:04.404Z,53.38
2019-03-24T09:50:35.305Z,53.11
2019-03-24T09:53:06.737Z,52.67
2019-03-24T09:55:37.645Z,52.26
2019-03-24T09:58:09.472Z,52.43
2019-03-24T10:00:40.378Z,52.38
2019-03-24T10:03:11.307Z,52.52
2019-03-24T10:05:42.229Z,52.90
2019-03-24T10:08:13.447Z,53.07
2019-03-24T10:10:44.318Z,53.33
2019-03-24T10:13:15.267Z,53.51
2019-03-24T10:15:46.186Z,53.63
2019-03-24T10:18:17.116Z,53.84
2019-03-24T10:20:51.140Z,53.81
2019-03-24T10:23:22.201Z,53.46
2019-03-24T10:25:53.064Z,53.19
2019-03-24T10:28:24.820Z,53.09
2019-03-24T10:30:55.731Z,52.74
2019-03-24T10:33:26.694Z,52.46
2019-03-24T10:35:57.612Z,53.04
2019-03-24T10:38:28.547Z,53.40
2019-03-24T10:40:59.449Z,53.33
2019-03-24T10:43:31.410Z,53.04
2019-03-24T10:46:08.034Z,53.11
2019-03-24T10:48:35.112Z,52.83
2019-03-24T10:51:06.078Z,52.44
2019-03-24T10:53:37.010Z,52.02
2019-03-24T10:56:07.907Z,51.67
2019-03-24T10:58:39.726Z,51.91
2019-03-24T11:01:10.710Z,51.41
2019-03-24T11:03:41.656Z,51.05
2019-03-24T11:06:12.565Z,51.37
2019-03-24T11:08:43.510Z,51.80
2019-03-24T11:11:14.430Z,51.51
2019-03-24T11:13:45.377Z,50.90
2019-03-24T11:16:17.944Z,50.83
2019-03-24T11:18:48.949Z,51.17
2019-03-24T11:21:19.849Z,50.76
2019-03-24T11:23:50.773Z,50.79
2019-03-24T11:26:21.684Z,50.76
2019-03-24T11:28:53.544Z,50.56
2019-03-24T11:31:24.455Z,50.32
2019-03-24T11:33:55.388Z,50.62
2019-03-24T11:36:26.292Z,50.88
2019-03-24T11:38:59.064Z,50.73
2019-03-24T11:41:29.826Z,50.63
2019-03-24T11:44:01.731Z,50.67
2019-03-24T11:46:32.665Z,50.55
2019-03-24T11:49:03.593Z,50.94
2019-03-24T11:51:34.502Z,51.08
2019-03-24T11:54:05.427Z,51.05
2019-03-24T11:56:36.338Z,51.06
2019-03-24T11:59:08.488Z,50.48
2019-03-24T12:01:39.635Z,50.47
2019-03-24T12:04:10.632Z,50.39
2019-03-24T12:06:41.552Z,50.50
2019-03-24T12:09:12.562Z,50.55
2019-03-24T12:11:43.458Z,50.48
2019-03-24T12:14:15.258Z,50.61
2019-03-24T12:16:47.869Z,50.88
2019-03-24T12:19:18.804Z,51.13
2019-03-24T12:21:49.784Z,51.41
2019-03-24T12:24:20.722Z,51.23
2019-03-24T12:26:51.636Z,50.97
2019-03-24T12:29:23.450Z,51.02
2019-03-24T12:31:54.351Z,51.31
2019-03-24T12:34:25.319Z,51.46
2019-03-24T12:36:56.444Z,51.52
2019-03-24T12:39:28.172Z,51.56
2019-03-24T12:41:59.075Z,51.75
2019-03-24T12:44:31.053Z,51.88
2019-03-24T12:47:01.960Z,52.25
2019-03-24T12:49:32.899Z,51.84
2019-03-24T12:52:03.808Z,51.53
2019-03-24T12:54:34.804Z,51.41
2019-03-24T12:57:05.722Z,51.90
2019-03-24T12:59:37.592Z,52.08
2019-03-24T13:02:08.513Z,52.43
2019-03-24T13:04:39.452Z,52.54
2019-03-24T13:07:10.366Z,52.77
2019-03-24T13:09:41.301Z,52.78
2019-03-24T13:12:12.227Z,52.46
2019-03-24T13:14:44.144Z,51.55
2019-03-24T13:17:15.928Z,51.27
2019-03-24T13:19:46.859Z,50.99
2019-03-24T13:22:19.152Z,50.13
2019-03-24T13:24:50.139Z,50.08
2019-03-24T13:27:21.054Z,50.36
2019-03-24T13:29:52.029Z,50.27
2019-03-24T13:32:22.931Z,50.37
2019-03-24T13:34:53.883Z,50.55
2019-03-24T13:37:24.791Z,50.76
2019-03-24T13:39:55.718Z,50.88
2019-03-24T13:42:26.617Z,50.81
2019-03-24T13:44:58.361Z,51.03
2019-03-24T13:47:29.276Z,51.34
2019-03-24T13:50:00.383Z,51.14
2019-03-24T13:52:31.296Z,50.99
2019-03-24T13:55:02.240Z,51.11
2019-03-24T13:57:33.269Z,51.05
2019-03-24T14:00:07.462Z,51.37
2019-03-24T14:02:40.946Z,51.43
2019-03-24T14:05:11.954Z,51.58
2019-03-24T14:07:44.851Z,51.95
2019-03-24T14:10:16.349Z,52.06
2019-03-24T14:12:47.376Z,52.23
2019-03-24T14:15:19.461Z,52.62
2019-03-24T14:17:51.408Z,52.52
2019-03-24T14:20:22.388Z,51.30
2019-03-24T14:22:55.350Z,50.97
2019-03-24T14:25:25.935Z,50.13
2019-03-24T14:27:56.918Z,49.25
2019-03-24T14:30:46.010Z,49.24
2019-03-24T14:33:16.934Z,49.43
2019-03-24T14:35:48.200Z,49.55
2019-03-24T14:38:19.114Z,49.89
2019-03-24T14:40:50.040Z,49.64
2019-03-24T14:43:20.958Z,49.68
2019-03-24T14:45:52.726Z,50.06
2019-03-24T14:48:23.632Z,50.43
2019-03-24T14:50:55.084Z,50.67
2019-03-24T14:53:26.156Z,50.92
2019-03-24T14:55:57.167Z,51.02
2019-03-24T14:58:28.087Z,51.19
2019-03-24T15:00:59.216Z,50.98
2019-03-24T15:03:30.138Z,51.02
2019-03-24T15:06:01.184Z,50.63
2019-03-24T15:08:32.162Z,50.54
2019-03-24T15:11:03.115Z,50.37
2019-03-24T15:13:34.103Z,50.39
2019-03-24T15:16:05.876Z,50.59
2019-03-24T15:18:37.572Z,50.68
2019-03-24T15:21:11.493Z,50.56
2019-03-24T15:23:42.253Z,50.42
2019-03-24T15:26:13.209Z,50.18
2019-03-24T15:28:44.141Z,49.88
2019-03-24T15:31:15.111Z,49.81
2019-03-24T15:33:46.016Z,49.92
2019-03-24T15:36:16.983Z,50.38
2019-03-24T15:38:47.886Z,50.67
2019-03-24T15:41:18.910Z,50.78
2019-03-24T15:43:49.934Z,50.25
2019-03-24T15:46:21.891Z,48.47
2019-03-24T15:48:52.829Z,47.78
2019-03-24T15:51:23.789Z,47.31
2019-03-24T15:53:56.772Z,46.94
2019-03-24T15:56:48.790Z,47.02
2019-03-24T15:59:20.657Z,47.18
2019-03-24T16:01:54.332Z,47.42
2019-03-24T16:04:25.340Z,47.50
2019-03-24T16:07:06.206Z,47.75
2019-03-24T16:09:48.383Z,48.07
2019-03-24T16:12:28.222Z,48.44
2019-03-24T16:15:00.581Z,48.77
2019-03-24T16:17:32.838Z,49.12
2019-03-24T16:20:07.486Z,49.38
2019-03-24T16:22:41.214Z,49.53
2019-03-24T16:25:12.107Z,49.81
2019-03-24T16:27:43.038Z,50.29
2019-03-24T16:30:13.966Z,50.77
2019-03-24T16:32:45.782Z,51.21
2019-03-24T16:35:16.679Z,51.71
2019-03-24T16:37:47.604Z,52.09
2019-03-24T16:40:19.259Z,52.22
2019-03-24T16:42:50.186Z,52.53
2019-03-24T16:45:21.150Z,52.36
2019-03-24T16:47:52.891Z,52.48
2019-03-24T16:50:23.806Z,52.55
2019-03-24T16:52:54.733Z,52.85
2019-03-24T16:55:27.830Z,53.20
2019-03-24T16:57:58.765Z,53.33
2019-03-24T17:00:29.756Z,53.99
2019-03-24T17:03:00.851Z,54.17
2019-03-24T17:05:31.830Z,54.62
2019-03-24T17:08:02.749Z,55.69
2019-03-24T17:10:33.774Z,55.86
2019-03-24T17:13:04.711Z,56.72
2019-03-24T17:15:35.613Z,56.91
2019-03-24T17:18:07.643Z,57.30
2019-03-24T17:20:41.556Z,57.98
2019-03-24T17:23:12.495Z,58.03
2019-03-24T17:25:43.402Z,58.01
2019-03-24T17:28:14.407Z,57.63
2019-03-24T17:30:45.318Z,57.33
2019-03-24T17:33:17.899Z,57.08
2019-03-24T17:35:48.862Z,56.96
2019-03-24T17:38:19.851Z,57.12
2019-03-24T17:40:50.772Z,57.37
2019-03-24T17:43:22.024Z,57.64
2019-03-24T17:45:54.474Z,57.51
2019-03-24T17:48:26.221Z,57.71
2019-03-24T17:50:57.130Z,57.73
2019-03-24T17:53:28.054Z,58.14
2019-03-24T17:55:58.951Z,58.31
2019-03-24T17:58:29.945Z,58.31
2019-03-24T18:01:01.928Z,58.80
2019-03-24T18:03:33.666Z,58.82
2019-03-24T18:06:04.585Z,59.32
2019-03-24T18:08:35.510Z,59.59
2019-03-24T18:11:06.416Z,59.70
2019-03-24T18:13:37.395Z,59.79
2019-03-24T18:16:08.336Z,59.98
2019-03-24T18:18:40.096Z,60.00
2019-03-24T18:21:11.777Z,60.20
2019-03-24T18:23:42.711Z,60.32
2019-03-24T18:26:13.617Z,60.45
2019-03-24T18:28:44.552Z,60.36
2019-03-24T18:31:15.459Z,60.28
2019-03-24T18:33:47.244Z,60.15
2019-03-24T18:36:18.311Z,60.33
2019-03-24T18:38:49.260Z,60.33
2019-03-24T18:41:20.168Z,60.56
2019-03-24T18:43:51.099Z,60.48
2019-03-24T18:46:22.021Z,60.43
2019-03-24T18:48:53.823Z,60.35
2019-03-24T18:51:24.741Z,60.52
2019-03-24T18:53:55.816Z,60.49
2019-03-24T18:56:26.720Z,60.71
2019-03-24T18:58:57.661Z,60.61
2019-03-24T19:01:28.570Z,60.80
2019-03-24T19:03:59.663Z,61.07
2019-03-24T19:06:30.558Z,61.25
2019-03-24T19:09:01.501Z,61.55
2019-03-24T19:11:33.350Z,61.54
2019-03-24T19:14:04.386Z,61.82
2019-03-24T19:16:35.300Z,62.11
2019-03-24T19:19:07.098Z,62.23
2019-03-24T19:21:38.810Z,62.22
2019-03-24T19:24:09.750Z,62.20
2019-03-24T19:26:40.669Z,62.30
2019-03-24T19:29:11.604Z,62.45
2019-03-24T19:31:42.705Z,62.48
2019-03-24T19:34:14.445Z,62.55
2019-03-24T19:36:45.358Z,62.60
2019-03-24T19:39:16.292Z,62.60
2019-03-24T19:41:47.226Z,62.66
2019-03-24T19:44:18.152Z,62.98
2019-03-24T19:46:49.069Z,63.15
2019-03-24T19:49:20.825Z,63.46
2019-03-24T19:51:51.721Z,63.85
2019-03-24T19:54:22.731Z,64.10
2019-03-24T19:56:53.630Z,64.07
2019-03-24T19:59:24.582Z,64.40
2019-03-24T20:01:55.491Z,64.41
2019-03-24T20:04:27.265Z,64.63
2019-03-24T20:06:58.163Z,64.89
2019-03-24T20:09:29.171Z,65.05
2019-03-24T20:12:00.071Z,65.53
2019-03-24T20:14:31.017Z,65.63
2019-03-24T20:17:02.003Z,65.53
2019-03-24T20:19:32.981Z,65.51
2019-03-24T20:22:05.484Z,65.92
2019-03-24T20:24:36.437Z,66.48
2019-03-24T20:27:07.344Z,66.56
2019-03-24T20:29:38.279Z,66.53
2019-03-24T20:32:09.243Z,66.94
2019-03-24T20:34:40.995Z,66.67
2019-03-24T20:37:11.890Z,66.83
2019-03-24T20:39:43.622Z,66.71
2019-03-24T20:42:14.532Z,66.98
2019-03-24T20:44:45.464Z,67.02
2019-03-24T20:47:16.455Z,66.94
2019-03-24T20:49:48.196Z,67.15
2019-03-24T20:52:19.102Z,67.23
2019-03-24T20:54:50.039Z,67.23
2019-03-24T20:57:20.934Z,67.34
2019-03-24T20:59:54.493Z,67.55
2019-03-24T21:02:25.458Z,67.45
2019-03-24T21:04:57.212Z,67.49
2019-03-24T21:07:28.111Z,67.15
2019-03-24T21:09:59.051Z,67.27
2019-03-24T21:12:29.951Z,67.17
2019-03-24T21:15:00.878Z,66.97
2019-03-24T21:17:31.771Z,67.31
2019-03-24T21:20:02.723Z,67.28
2019-03-24T21:22:34.443Z,67.21
2019-03-24T21:25:06.606Z,67.26
2019-03-24T21:27:37.609Z,67.52
2019-03-24T21:30:11.751Z,67.40
2019-03-24T21:32:42.580Z,67.67
2019-03-24T21:35:14.465Z,67.90
2019-03-24T21:37:45.374Z,67.92
2019-03-24T21:40:16.311Z,68.00
2019-03-24T21:42:47.274Z,68.06
2019-03-24T21:45:18.193Z,68.22
2019-03-24T21:47:49.106Z,68.54
2019-03-24T21:50:20.155Z,68.41
2019-03-24T21:52:51.059Z,68.61
2019-03-24T21:55:22.012Z,68.44
2019-03-24T21:57:57.497Z,68.36
2019-03-24T22:00:33.657Z,68.44
2019-03-24T22:03:04.822Z,68.45
2019-03-24T22:05:35.871Z,68.25
2019-03-24T22:08:06.781Z,68.06
2019-03-24T22:10:37.710Z,67.98
2019-03-24T22:13:08.610Z,68.24
2019-03-24T22:15:39.537Z,68.24
2019-03-24T22:18:10.458Z,68.24
2019-03-24T22:20:48.821Z,68.59
2019-03-24T22:23:15.590Z,68.93
2019-03-24T22:25:46.529Z,68.82
2019-03-24T22:28:17.428Z,68.93
2019-03-24T22:30:48.364Z,68.86
2019-03-24T22:33:19.266Z,69.10
2019-03-24T22:35:51.014Z,69.26
2019-03-24T22:38:21.911Z,69.28
2019-03-24T22:41:02.040Z,69.20
2019-03-24T22:43:32.945Z,69.21
2019-03-24T22:46:03.867Z,69.22
2019-03-24T22:48:34.760Z,69.13
2019-03-24T22:51:05.714Z,69.16
2019-03-24T22:53:36.603Z,69.29
2019-03-24T22:56:07.532Z,69.81
2019-03-24T22:58:38.497Z,69.39
2019-03-24T23:01:10.097Z,69.58
2019-03-24T23:03:41.047Z,69.65
2019-03-24T23:06:13.677Z,69.63
2019-03-24T23:08:44.686Z,69.87
2019-03-24T23:11:15.640Z,69.98
2019-03-24T23:13:46.679Z,69.87
2019-03-24T23:16:17.641Z,69.96
2019-03-24T23:18:48.607Z,69.95
2019-03-24T23:21:25.772Z,69.69
2019-03-24T23:23:57.656Z,69.69
2019-03-24T23:26:28.674Z,69.96
2019-03-24T23:28:59.677Z,69.83
2019-03-24T23:31:30.658Z,69.64
2019-03-24T23:34:08.906Z,69.69
2019-03-24T23:36:39.889Z,69.66
2019-03-24T23:39:10.821Z,69.72
2019-03-24T23:41:41.805Z,69.84
2019-03-24T23:44:12.716Z,69.89
2019-03-24T23:46:43.643Z,69.92
2019-03-24T23:49:14.554Z,70.14
2019-03-24T23:51:46.293Z,70.44
2019-03-24T23:54:27.083Z,70.31
2019-03-24T23:56:54.981Z,70.30
2019-03-24T23:59:25.890Z,70.43
